createdAt,value
2023-04-24T00:00:03.068Z,11.1
2023-04-24T00:20:02.383Z,10.9
2023-04-24T00:40:02.923Z,10.8
2023-04-24T01:00:02.281Z,10.7
2023-04-24T01:20:03.043Z,10.8
2023-04-24T01:40:02.407Z,10.7
2023-04-24T02:00:02.780Z,10.6
2023-04-24T02:20:02.540Z,10.6
2023-04-24T02:40:03.034Z,10.5
2023-04-24T03:00:02.638Z,10.5
2023-04-24T03:20:03.180Z,10.6
2023-04-24T03:40:02.562Z,10.8
2023-04-24T04:00:02.946Z,10.9
2023-04-24T04:20:02.565Z,11
2023-04-24T04:40:02.539Z,11.1
2023-04-24T05:00:02.912Z,11.3
2023-04-24T05:20:02.240Z,11.5
2023-04-24T05:40:02.764Z,11.9
2023-04-24T06:00:02.168Z,12.4
2023-04-24T06:20:02.633Z,13.1
2023-04-24T06:40:02.268Z,13.5
2023-04-24T07:00:02.987Z,13.8
2023-04-24T07:20:02.590Z,15.3
2023-04-24T07:40:02.995Z,17
2023-04-24T08:00:02.861Z,18.3
2023-04-24T08:20:02.729Z,17.7
2023-04-24T08:40:02.844Z,19
2023-04-24T09:00:02.782Z,19.3
2023-04-24T09:20:02.384Z,19.3
2023-04-24T09:40:02.955Z,18.4
2023-04-24T10:00:02.658Z,17.9
2023-04-24T10:20:02.282Z,17.4
2023-04-24T10:40:02.697Z,16.8
2023-04-24T11:00:03.525Z,17.1
2023-04-24T11:20:09.349Z,18.6
2023-04-24T11:40:02.871Z,19.4
2023-04-24T12:00:05.372Z,19.7
2023-04-24T12:20:03.510Z,17.1
2023-04-24T12:40:02.927Z,18.5
2023-04-24T13:00:02.852Z,17.9
2023-04-24T13:20:02.616Z,17.9
2023-04-24T13:40:03.270Z,17.9
2023-04-24T14:00:02.675Z,18.1
2023-04-24T14:20:02.478Z,18.1
2023-04-24T14:40:15.661Z,18.1
2023-04-24T15:00:02.680Z,17.9
2023-04-24T15:20:02.393Z,17.5
2023-04-24T15:40:02.985Z,17.4
2023-04-24T16:00:02.345Z,17.2
2023-04-24T16:20:02.762Z,16.7
2023-04-24T16:40:02.206Z,16.2
2023-04-24T17:00:02.880Z,15.6
2023-04-24T17:20:08.544Z,15.3
2023-04-24T17:40:02.634Z,14.4
2023-04-24T18:00:02.913Z,13.7
2023-04-24T18:20:02.437Z,13.1
2023-04-24T18:40:03.269Z,12.6
2023-04-24T19:00:02.614Z,12.2
2023-04-24T19:20:02.290Z,11.7
2023-04-24T19:40:02.562Z,11.3
2023-04-24T20:00:02.893Z,11
2023-04-24T20:20:02.245Z,10.8
2023-04-24T20:40:02.777Z,10.4
2023-04-24T21:00:02.396Z,10.1
2023-04-24T21:20:02.976Z,9.9
2023-04-24T21:40:02.238Z,9.7
2023-04-24T22:00:02.534Z,9.6
2023-04-24T22:20:02.231Z,9.5
2023-04-24T22:40:02.716Z,9.4
2023-04-24T23:00:03.231Z,9.4
2023-04-24T23:20:02.704Z,9.1
2023-04-24T23:40:02.843Z,8.8
